Lagoa, Portugal
Current Conditions -  °F | °C
As of 10:00 AM on Monday 22 Dec 2014 (Local Time) from LPFR Reporting Station
Few Clouds Few Clouds  
Wind Chill: 61°   Ceiling: Unl
Heat Index: 61°   Visibility: 6mi
Dew Point: 50°   Wind: 10mph
Humidity: 68%   Direction: 80°E
Pressure: 30.36"   Gusts: NA
Location:  37.14°N, 8.45°W
Report Text: LPFR 221100Z 08009KT 9999 FEW025 16/10 Q1028
Loading
Personal Weather Stations






























Interactive Weather Map New forecast layout! Learn more

10-Day Weather Forecast

Advertisements
Track Severe Weather on mobile